createdAt,value
2019-03-05T00:00:30.979Z,7.05
2019-03-05T00:01:30.976Z,7.04
2019-03-05T00:02:30.972Z,7.05
2019-03-05T00:03:30.948Z,7.08
2019-03-05T00:04:30.942Z,7.04
2019-03-05T00:05:30.959Z,7.04
2019-03-05T00:06:30.948Z,7.04
2019-03-05T00:07:30.983Z,7.07
2019-03-05T00:08:30.964Z,7.04
2019-03-05T00:09:30.973Z,7.05
2019-03-05T00:10:31.037Z,7.08
2019-03-05T00:11:30.940Z,7.05
2019-03-05T00:12:30.932Z,7.06
2019-03-05T00:13:30.974Z,7.09
2019-03-05T00:14:30.970Z,7.07
2019-03-05T00:15:31.069Z,7.1
2019-03-05T00:16:30.959Z,7.06
2019-03-05T00:17:30.927Z,7.06
2019-03-05T00:18:30.953Z,7.09
2019-03-05T00:19:30.959Z,7.04
2019-03-05T00:20:30.933Z,7.06
2019-03-05T00:21:31.268Z,7.04
2019-03-05T00:22:30.945Z,7.05
2019-03-05T00:23:30.947Z,7.06
2019-03-05T00:24:30.919Z,7.06
2019-03-05T00:25:30.942Z,7.09
2019-03-05T00:26:30.945Z,7.05
2019-03-05T00:27:30.972Z,7.07
2019-03-05T00:28:30.961Z,7.06
2019-03-05T00:29:30.919Z,7.04
2019-03-05T00:30:30.936Z,7.04
2019-03-05T00:31:30.960Z,7.05
2019-03-05T00:32:30.965Z,7.08
2019-03-05T00:33:33.240Z,7.05
2019-03-05T00:34:30.929Z,7.07
2019-03-05T00:35:30.935Z,7.1
2019-03-05T00:36:30.934Z,7.07
2019-03-05T00:37:30.947Z,7.08
2019-03-05T00:38:30.908Z,7.08
2019-03-05T00:39:30.948Z,7.05
2019-03-05T00:40:30.907Z,7.08
2019-03-05T00:41:30.920Z,7.09
2019-03-05T00:42:30.905Z,7.08
2019-03-05T00:43:31.885Z,7.09
2019-03-05T00:44:30.920Z,7.06
2019-03-05T00:45:30.907Z,7.07
2019-03-05T00:46:30.900Z,7.05
2019-03-05T00:47:30.890Z,7.04
2019-03-05T00:48:30.918Z,7.03
2019-03-05T00:49:30.910Z,7.03
2019-03-05T00:50:30.909Z,7.03
2019-03-05T00:51:30.881Z,6.98
2019-03-05T00:52:30.933Z,7.01
2019-03-05T00:53:30.886Z,7.01
2019-03-05T00:54:30.877Z,6.99
2019-03-05T00:55:30.885Z,6.98
2019-03-05T00:56:30.911Z,6.98
2019-03-05T00:57:30.897Z,6.95
2019-03-05T00:58:30.884Z,6.95
2019-03-05T00:59:30.927Z,6.93
2019-03-05T01:00:30.896Z,6.91
2019-03-05T01:01:30.906Z,6.89
2019-03-05T01:02:30.868Z,6.9
2019-03-05T01:03:30.915Z,6.86
2019-03-05T01:04:30.916Z,6.83
2019-03-05T01:05:30.905Z,6.83
2019-03-05T01:06:30.893Z,6.85
2019-03-05T01:07:30.865Z,6.85
2019-03-05T01:08:30.903Z,6.82
2019-03-05T01:09:30.874Z,6.85
2019-03-05T01:10:30.879Z,6.84
2019-03-05T01:11:30.867Z,6.83
2019-03-05T01:12:30.873Z,6.82
2019-03-05T01:13:30.862Z,6.78
2019-03-05T01:14:30.859Z,6.78
2019-03-05T01:15:30.865Z,6.78
2019-03-05T01:16:30.922Z,6.77
2019-03-05T01:17:30.881Z,6.78
2019-03-05T01:18:30.867Z,6.79
2019-03-05T01:19:30.868Z,6.79
2019-03-05T01:20:30.863Z,6.78
2019-03-05T01:21:30.937Z,6.79
2019-03-05T01:22:30.913Z,6.79
2019-03-05T01:23:30.844Z,6.78
2019-03-05T01:24:30.900Z,6.8
2019-03-05T01:25:30.857Z,6.81
2019-03-05T01:26:30.958Z,6.8
2019-03-05T01:27:30.859Z,6.8
2019-03-05T01:28:30.900Z,6.81
2019-03-05T01:29:30.866Z,6.81
2019-03-05T01:30:30.841Z,6.83
2019-03-05T01:31:30.910Z,6.81
2019-03-05T01:32:30.828Z,6.82
2019-03-05T01:33:30.844Z,6.84
2019-03-05T01:34:30.888Z,6.84
2019-03-05T01:35:30.827Z,6.86
2019-03-05T01:36:30.852Z,6.84
2019-03-05T01:37:30.858Z,6.84
2019-03-05T01:38:30.842Z,6.82
2019-03-05T01:39:30.847Z,6.8
2019-03-05T01:40:30.833Z,6.79
2019-03-05T01:41:30.847Z,6.81
2019-03-05T01:42:30.843Z,6.84
2019-03-05T01:43:30.812Z,6.82
2019-03-05T01:44:30.841Z,6.8
2019-03-05T01:45:30.857Z,6.81
2019-03-05T01:46:30.831Z,6.81
2019-03-05T01:47:30.816Z,6.84
2019-03-05T01:48:31.220Z,6.85
2019-03-05T01:49:30.809Z,6.83
2019-03-05T01:50:30.832Z,6.85
2019-03-05T01:51:30.830Z,6.86
2019-03-05T01:52:30.906Z,6.85
2019-03-05T01:53:30.859Z,6.85
2019-03-05T01:54:30.825Z,6.85
2019-03-05T01:55:30.869Z,6.86
2019-03-05T01:56:30.852Z,6.86
2019-03-05T01:57:30.806Z,6.85
2019-03-05T01:58:30.793Z,6.85
2019-03-05T01:59:30.813Z,6.81
2019-03-05T02:00:30.800Z,6.84
2019-03-05T02:01:30.806Z,6.82
2019-03-05T02:02:30.800Z,6.85
2019-03-05T02:03:30.806Z,6.84
2019-03-05T02:04:30.772Z,6.85
2019-03-05T02:05:30.790Z,6.87
2019-03-05T02:06:30.809Z,6.85
2019-03-05T02:07:30.801Z,6.83
2019-03-05T02:08:30.773Z,6.83
2019-03-05T02:09:30.818Z,6.83
2019-03-05T02:10:30.799Z,6.85
2019-03-05T02:11:30.799Z,6.84
2019-03-05T02:12:30.769Z,6.85
2019-03-05T02:13:30.809Z,6.86
2019-03-05T02:14:30.765Z,6.86
2019-03-05T02:15:30.773Z,6.85
2019-03-05T02:16:30.855Z,6.85
2019-03-05T02:17:30.802Z,6.85
2019-03-05T02:18:30.769Z,6.86
2019-03-05T02:19:30.762Z,6.89
2019-03-05T02:20:30.790Z,6.88
2019-03-05T02:21:30.773Z,6.88
2019-03-05T02:22:30.800Z,6.89
2019-03-05T02:23:30.829Z,6.9
2019-03-05T02:24:30.781Z,6.88
2019-03-05T02:25:30.776Z,6.9
2019-03-05T02:26:30.809Z,6.88
2019-03-05T02:27:31.442Z,6.91
2019-03-05T02:28:30.861Z,6.91
2019-03-05T02:29:30.746Z,6.93
2019-03-05T02:30:30.772Z,6.93
2019-03-05T02:31:30.796Z,6.93
2019-03-05T02:32:30.798Z,6.96
2019-03-05T02:33:30.792Z,6.94
2019-03-05T02:34:30.802Z,6.93
2019-03-05T02:35:30.802Z,6.98
2019-03-05T02:36:30.770Z,6.98
2019-03-05T02:37:30.805Z,7.01
2019-03-05T02:38:30.825Z,6.98
2019-03-05T02:39:30.741Z,6.98
2019-03-05T02:40:30.769Z,7.01
2019-03-05T02:41:30.736Z,6.99
2019-03-05T02:42:30.745Z,6.98
2019-03-05T02:43:30.778Z,6.99
2019-03-05T02:44:30.829Z,6.99
2019-03-05T02:45:32.141Z,6.98
2019-03-05T02:46:30.809Z,6.97
2019-03-05T02:47:30.820Z,6.97
2019-03-05T02:48:30.749Z,6.95
2019-03-05T02:49:30.822Z,6.96
2019-03-05T02:50:30.753Z,6.97
2019-03-05T02:51:30.787Z,6.97
2019-03-05T02:52:30.745Z,6.96
2019-03-05T02:53:30.918Z,6.94
2019-03-05T02:54:30.736Z,6.97
2019-03-05T02:55:30.725Z,6.97
2019-03-05T02:56:30.772Z,6.96
2019-03-05T02:57:30.779Z,6.97
2019-03-05T02:58:30.803Z,6.96
2019-03-05T02:59:30.741Z,6.97
2019-03-05T03:00:30.701Z,6.96
2019-03-05T03:01:30.703Z,6.97
2019-03-05T03:02:30.818Z,6.98
2019-03-05T03:03:30.754Z,6.97
2019-03-05T03:04:30.723Z,6.94
2019-03-05T03:05:30.791Z,6.88
2019-03-05T03:06:30.699Z,6.76
2019-03-05T03:07:30.746Z,6.72
2019-03-05T03:08:30.753Z,6.66
2019-03-05T03:09:30.720Z,6.61
2019-03-05T03:10:30.812Z,6.58
2019-03-05T03:11:30.747Z,6.56
2019-03-05T03:12:30.708Z,6.59
2019-03-05T03:13:30.686Z,6.55
2019-03-05T03:14:30.710Z,6.52
2019-03-05T03:15:30.783Z,6.43
2019-03-05T03:16:30.843Z,6.38
2019-03-05T03:17:30.859Z,6.41
2019-03-05T03:18:30.727Z,6.42
2019-03-05T03:19:30.709Z,6.39
2019-03-05T03:20:30.711Z,6.41
2019-03-05T03:21:30.709Z,6.35
2019-03-05T03:22:30.719Z,6.36
2019-03-05T03:23:30.726Z,6.35
2019-03-05T03:24:30.707Z,6.37
2019-03-05T03:25:30.705Z,6.34
2019-03-05T03:26:30.703Z,6.27
2019-03-05T03:27:30.674Z,6.26
2019-03-05T03:28:30.705Z,6.22
2019-03-05T03:29:30.721Z,6.25
2019-03-05T03:30:30.734Z,6.24
2019-03-05T03:31:30.747Z,6.22
2019-03-05T03:32:30.766Z,6.21
2019-03-05T03:33:30.728Z,6.2
2019-03-05T03:34:30.775Z,6.2
2019-03-05T03:35:30.696Z,6.23
2019-03-05T03:36:30.835Z,6.23
2019-03-05T03:37:30.721Z,6.23
2019-03-05T03:38:30.663Z,6.23
2019-03-05T03:39:30.683Z,6.28
2019-03-05T03:40:30.678Z,6.24
2019-03-05T03:41:30.678Z,6.26
2019-03-05T03:42:30.694Z,6.27
2019-03-05T03:43:30.732Z,6.22
2019-03-05T03:44:30.705Z,6.26
2019-03-05T03:45:30.692Z,6.23
2019-03-05T03:46:30.641Z,6.25
2019-03-05T03:47:30.677Z,6.26
2019-03-05T03:48:30.675Z,6.24
2019-03-05T03:49:30.666Z,6.26
2019-03-05T03:50:30.665Z,6.24
2019-03-05T03:51:30.674Z,6.23
2019-03-05T03:52:30.633Z,6.24
2019-03-05T03:53:30.699Z,6.23
2019-03-05T03:54:30.825Z,6.23
2019-03-05T03:55:30.697Z,6.22
2019-03-05T03:56:30.667Z,6.23
2019-03-05T03:57:30.637Z,6.23
2019-03-05T03:58:30.702Z,6.19
2019-03-05T03:59:30.699Z,6.21
2019-03-05T04:00:30.694Z,6.21
2019-03-05T04:01:30.766Z,6.22
2019-03-05T04:02:30.666Z,6.22
2019-03-05T04:03:30.751Z,6.22
2019-03-05T04:04:30.647Z,6.22
2019-03-05T04:05:30.666Z,6.19
2019-03-05T04:06:30.691Z,6.22
2019-03-05T04:07:30.748Z,6.21
2019-03-05T04:08:30.674Z,6.19
2019-03-05T04:09:30.655Z,6.21
2019-03-05T04:10:30.699Z,6.18
2019-03-05T04:11:30.647Z,6.2
2019-03-05T04:12:30.634Z,6.2
2019-03-05T04:13:30.625Z,6.18
2019-03-05T04:14:30.665Z,6.17
2019-03-05T04:15:31.423Z,6.17
2019-03-05T04:16:30.745Z,6.18
2019-03-05T04:17:30.633Z,6.18
2019-03-05T04:18:30.654Z,6.18
2019-03-05T04:19:30.695Z,6.17
2019-03-05T04:20:30.655Z,6.15
2019-03-05T04:21:30.666Z,6.16
2019-03-05T04:22:30.651Z,6.15
2019-03-05T04:23:30.612Z,6.12
2019-03-05T04:24:30.625Z,6.1
2019-03-05T04:25:30.588Z,6.1
2019-03-05T04:26:30.599Z,6.08
2019-03-05T04:27:30.602Z,6.04
2019-03-05T04:28:30.610Z,6.05
2019-03-05T04:29:30.661Z,6.08
2019-03-05T04:30:30.637Z,6.1
2019-03-05T04:31:30.618Z,6.1
2019-03-05T04:32:30.587Z,6.09
2019-03-05T04:33:30.600Z,6.1
2019-03-05T04:34:30.587Z,6.1
2019-03-05T04:35:30.581Z,6.11
2019-03-05T04:36:30.641Z,6.12
2019-03-05T04:37:30.754Z,6.11
2019-03-05T04:38:30.574Z,6.15
2019-03-05T04:39:30.589Z,6.14
2019-03-05T04:40:30.560Z,6.15
2019-03-05T04:41:30.570Z,6.15
2019-03-05T04:42:30.626Z,6.14
2019-03-05T04:43:30.571Z,6.16
2019-03-05T04:44:30.563Z,6.16
2019-03-05T04:45:30.567Z,6.16
2019-03-05T04:46:30.557Z,6.18
2019-03-05T04:47:30.544Z,6.18
2019-03-05T04:48:30.557Z,6.18
2019-03-05T04:49:30.555Z,6.2
2019-03-05T04:50:30.554Z,6.19
2019-03-05T04:51:30.543Z,6.2
2019-03-05T04:52:30.547Z,6.19
2019-03-05T04:53:30.572Z,6.2
2019-03-05T04:54:30.556Z,6.22
2019-03-05T04:55:30.579Z,6.23
2019-03-05T04:56:30.545Z,6.24
2019-03-05T04:57:30.545Z,6.24
2019-03-05T04:58:30.602Z,6.27
2019-03-05T04:59:30.755Z,6.27
2019-03-05T05:00:30.534Z,6.25
2019-03-05T05:01:30.566Z,6.27
2019-03-05T05:02:30.548Z,6.28
2019-03-05T05:03:30.552Z,6.29
2019-03-05T05:04:30.610Z,6.29
2019-03-05T05:05:30.536Z,6.3
2019-03-05T05:06:30.511Z,6.29
2019-03-05T05:07:30.558Z,6.29
2019-03-05T05:08:30.550Z,6.33
2019-03-05T05:09:30.520Z,6.31
2019-03-05T05:10:30.804Z,6.31
2019-03-05T05:11:30.530Z,6.33
2019-03-05T05:12:30.531Z,6.31
2019-03-05T05:13:30.527Z,6.35
2019-03-05T05:14:30.507Z,6.35
2019-03-05T05:15:30.544Z,6.34
2019-03-05T05:16:30.519Z,6.34
2019-03-05T05:17:30.501Z,6.35
2019-03-05T05:18:30.511Z,6.39
2019-03-05T05:19:30.530Z,6.37
2019-03-05T05:20:30.620Z,6.37
2019-03-05T05:21:30.581Z,6.36
2019-03-05T05:22:30.528Z,6.4
2019-03-05T05:23:30.491Z,6.39
2019-03-05T05:24:30.548Z,6.38
2019-03-05T05:25:30.534Z,6.39
2019-03-05T05:26:30.544Z,6.4
2019-03-05T05:27:30.501Z,6.41
2019-03-05T05:28:30.495Z,6.41
2019-03-05T05:29:30.526Z,6.44
2019-03-05T05:30:30.515Z,6.45
2019-03-05T05:31:30.506Z,6.42
2019-03-05T05:32:30.500Z,6.44
2019-03-05T05:33:30.485Z,6.44
2019-03-05T05:34:30.481Z,6.47
2019-03-05T05:35:30.520Z,6.47
2019-03-05T05:36:30.496Z,6.47
2019-03-05T05:37:30.481Z,6.47
2019-03-05T05:38:30.548Z,6.47
2019-03-05T05:39:30.463Z,6.47
2019-03-05T05:40:30.494Z,6.47
2019-03-05T05:41:30.482Z,6.48
2019-03-05T05:42:30.805Z,6.47
2019-03-05T05:43:30.467Z,6.47
2019-03-05T05:44:30.453Z,6.47
2019-03-05T05:45:30.484Z,6.48
2019-03-05T05:46:30.510Z,6.47
2019-03-05T05:47:30.487Z,6.47
2019-03-05T05:48:30.494Z,6.47
2019-03-05T05:49:30.514Z,6.47
2019-03-05T05:50:30.465Z,6.48
2019-03-05T05:51:30.444Z,6.49
2019-03-05T05:52:30.454Z,6.49
2019-03-05T05:53:30.482Z,6.47
2019-03-05T05:54:30.467Z,6.49
2019-03-05T05:55:30.466Z,6.51
2019-03-05T05:56:30.465Z,6.49
2019-03-05T05:57:30.440Z,6.5
2019-03-05T05:58:30.450Z,6.51
2019-03-05T05:59:30.441Z,6.5
2019-03-05T06:00:30.465Z,6.5
2019-03-05T06:01:30.472Z,6.5
2019-03-05T06:02:30.463Z,6.49
2019-03-05T06:03:30.599Z,6.51
2019-03-05T06:04:30.457Z,6.49
2019-03-05T06:05:30.462Z,6.48
2019-03-05T06:06:30.440Z,6.49
2019-03-05T06:07:30.454Z,6.48
2019-03-05T06:08:30.509Z,6.5
2019-03-05T06:09:30.456Z,6.51
2019-03-05T06:10:30.429Z,6.51
2019-03-05T06:11:30.425Z,6.5
2019-03-05T06:12:30.418Z,6.5
2019-03-05T06:13:30.485Z,6.53
2019-03-05T06:14:30.447Z,6.53
2019-03-05T06:15:30.419Z,6.54
2019-03-05T06:16:30.425Z,6.54
2019-03-05T06:17:30.422Z,6.54
2019-03-05T06:18:30.444Z,6.54
2019-03-05T06:19:30.452Z,6.57
2019-03-05T06:20:30.501Z,6.58
2019-03-05T06:21:30.416Z,6.6
2019-03-05T06:22:30.402Z,6.6
2019-03-05T06:23:30.477Z,6.6
2019-03-05T06:24:30.442Z,6.62
2019-03-05T06:25:30.492Z,6.65
2019-03-05T06:26:30.418Z,6.65
2019-03-05T06:27:30.387Z,6.66
2019-03-05T06:28:30.395Z,6.66
2019-03-05T06:29:30.400Z,6.68
2019-03-05T06:30:30.411Z,6.68
2019-03-05T06:31:30.410Z,6.68
2019-03-05T06:32:30.425Z,6.69
2019-03-05T06:33:30.408Z,6.67
2019-03-05T06:34:30.388Z,6.68
2019-03-05T06:35:30.492Z,6.71
2019-03-05T06:36:30.385Z,6.72
2019-03-05T06:37:33.464Z,6.73
2019-03-05T06:38:30.395Z,6.73
2019-03-05T06:39:30.384Z,6.74
2019-03-05T06:40:30.414Z,6.76
2019-03-05T06:41:30.407Z,6.75
2019-03-05T06:42:30.393Z,6.77
2019-03-05T06:43:30.406Z,6.77
2019-03-05T06:44:30.408Z,6.77
2019-03-05T06:45:30.385Z,6.77
2019-03-05T06:46:30.409Z,6.75
2019-03-05T06:47:30.739Z,6.75
2019-03-05T06:48:30.394Z,6.76
2019-03-05T06:49:30.394Z,6.75
2019-03-05T06:50:30.427Z,6.74
2019-03-05T06:51:30.369Z,6.73
2019-03-05T06:52:30.381Z,6.75
2019-03-05T06:53:30.361Z,6.76
2019-03-05T06:54:30.377Z,6.73
2019-03-05T06:55:30.382Z,6.74
2019-03-05T06:56:30.367Z,6.74
2019-03-05T06:57:30.386Z,6.75
2019-03-05T06:58:30.397Z,6.73
2019-03-05T06:59:30.455Z,6.72
2019-03-05T07:00:30.351Z,6.71
2019-03-05T07:01:30.369Z,6.71
2019-03-05T07:02:30.345Z,6.7
2019-03-05T07:03:30.376Z,6.7
2019-03-05T07:04:30.360Z,6.68
2019-03-05T07:05:30.383Z,6.7
2019-03-05T07:06:30.351Z,6.69
2019-03-05T07:07:30.362Z,6.67
2019-03-05T07:08:30.420Z,6.7
2019-03-05T07:09:30.330Z,6.7
2019-03-05T07:10:30.466Z,6.69
2019-03-05T07:11:30.336Z,6.68
2019-03-05T07:12:30.369Z,6.7
2019-03-05T07:13:30.345Z,6.71
2019-03-05T07:14:30.390Z,6.69
2019-03-05T07:15:30.395Z,6.71
2019-03-05T07:16:30.331Z,6.72
2019-03-05T07:17:30.339Z,6.71
2019-03-05T07:18:30.378Z,6.72
2019-03-05T07:19:30.360Z,6.72
2019-03-05T07:20:30.342Z,6.73
2019-03-05T07:21:30.313Z,6.73
2019-03-05T07:22:30.330Z,6.74
2019-03-05T07:23:30.328Z,6.76
2019-03-05T07:24:30.334Z,6.77
2019-03-05T07:25:30.356Z,6.77
2019-03-05T07:26:30.330Z,6.77
2019-03-05T07:27:30.417Z,6.77
2019-03-05T07:28:30.362Z,6.76
2019-03-05T07:29:30.714Z,6.78
2019-03-05T07:30:30.710Z,6.75
2019-03-05T07:31:30.440Z,6.78
2019-03-05T07:32:30.318Z,6.77
2019-03-05T07:33:30.320Z,6.79
2019-03-05T07:34:30.336Z,6.79
2019-03-05T07:35:30.307Z,6.81
2019-03-05T07:36:30.320Z,6.79
2019-03-05T07:37:30.334Z,6.81
2019-03-05T07:38:30.337Z,6.81
2019-03-05T07:39:30.318Z,6.82
2019-03-05T07:40:30.320Z,6.83
2019-03-05T07:41:30.325Z,6.83
2019-03-05T07:42:30.363Z,6.85
2019-03-05T07:43:37.062Z,6.85
2019-03-05T07:44:30.300Z,6.86
2019-03-05T07:45:30.314Z,6.85
2019-03-05T07:46:30.339Z,6.86
2019-03-05T07:47:30.295Z,6.89
2019-03-05T07:48:30.322Z,6.89
2019-03-05T07:49:30.299Z,6.89
2019-03-05T07:50:30.292Z,6.88
2019-03-05T07:51:30.675Z,6.87
2019-03-05T07:52:30.283Z,6.89
2019-03-05T07:53:30.286Z,6.89
2019-03-05T07:54:30.293Z,6.9
2019-03-05T07:55:30.289Z,6.91
2019-03-05T07:56:30.302Z,6.92
2019-03-05T07:57:30.282Z,6.95
2019-03-05T07:58:30.299Z,6.96
2019-03-05T07:59:30.300Z,6.96
2019-03-05T08:00:30.367Z,7.01
2019-03-05T08:01:30.320Z,7
2019-03-05T08:02:30.284Z,7.04
2019-03-05T08:03:30.294Z,7.05
2019-03-05T08:04:30.273Z,7.1
2019-03-05T08:05:30.363Z,7.15
2019-03-05T08:06:30.307Z,7.18
2019-03-05T08:07:30.288Z,7.24
2019-03-05T08:08:30.288Z,7.29
2019-03-05T08:09:30.320Z,7.35
2019-03-05T08:10:30.312Z,7.39
2019-03-05T08:11:32.189Z,7.43
2019-03-05T08:12:30.316Z,7.46
2019-03-05T08:13:30.313Z,7.47
2019-03-05T08:14:30.292Z,7.48
2019-03-05T08:15:30.247Z,7.51
2019-03-05T08:16:30.251Z,7.54
2019-03-05T08:17:30.339Z,7.56
2019-03-05T08:18:30.313Z,7.58
2019-03-05T08:19:30.257Z,7.6
2019-03-05T08:20:30.252Z,7.63
2019-03-05T08:21:30.241Z,7.62
2019-03-05T08:22:30.342Z,7.65
2019-03-05T08:23:30.248Z,7.7
2019-03-05T08:24:30.332Z,7.73
2019-03-05T08:25:30.262Z,7.79
2019-03-05T08:26:30.291Z,7.82
2019-03-05T08:27:30.240Z,7.87
2019-03-05T08:28:30.237Z,7.92
2019-03-05T08:29:30.232Z,7.98
2019-03-05T08:30:30.241Z,8.03
2019-03-05T08:31:30.247Z,8.05
2019-03-05T08:32:30.246Z,8.09
2019-03-05T08:33:30.264Z,8.13
2019-03-05T08:34:30.714Z,8.13
2019-03-05T08:35:30.244Z,8.16
2019-03-05T08:36:30.327Z,8.21
2019-03-05T08:37:30.241Z,8.24
2019-03-05T08:38:30.260Z,8.24
2019-03-05T08:39:30.275Z,8.26
2019-03-05T08:40:30.246Z,8.25
2019-03-05T08:41:30.540Z,8.27
2019-03-05T08:42:30.241Z,8.25
2019-03-05T08:43:30.223Z,8.25
2019-03-05T08:44:30.293Z,8.23
2019-03-05T08:45:30.241Z,8.23
2019-03-05T08:46:30.277Z,8.18
2019-03-05T08:47:30.295Z,8.2
2019-03-05T08:48:30.279Z,8.18
2019-03-05T08:49:30.238Z,8.16
2019-03-05T08:50:30.220Z,8.16
2019-03-05T08:51:30.281Z,8.16
2019-03-05T08:52:31.336Z,8.16
2019-03-05T08:53:30.211Z,8.17
2019-03-05T08:54:30.211Z,8.16
2019-03-05T08:55:30.306Z,8.15
2019-03-05T08:56:30.234Z,8.15
2019-03-05T08:57:30.211Z,8.15
2019-03-05T08:58:30.239Z,8.14
2019-03-05T08:59:33.273Z,8.14
2019-03-05T09:00:30.259Z,8.12
2019-03-05T09:01:30.195Z,8.09
2019-03-05T09:02:30.201Z,8.09
2019-03-05T09:03:30.205Z,8.12
2019-03-05T09:04:30.187Z,8.1
2019-03-05T09:05:30.191Z,8.1
2019-03-05T09:06:30.195Z,8.1
2019-03-05T09:07:30.178Z,8.11
2019-03-05T09:08:30.207Z,8.12
2019-03-05T09:09:30.222Z,8.12
2019-03-05T09:10:30.183Z,8.11
2019-03-05T09:11:30.178Z,8.09
2019-03-05T09:12:30.206Z,8.1
2019-03-05T09:13:33.541Z,8.1
2019-03-05T09:14:30.160Z,8.13
2019-03-05T09:15:30.347Z,8.12
2019-03-05T09:16:30.193Z,8.14
2019-03-05T09:17:30.273Z,8.14
2019-03-05T09:18:31.565Z,8.15
2019-03-05T09:19:30.148Z,8.16
2019-03-05T09:20:30.177Z,8.15
2019-03-05T09:21:30.157Z,8.14
2019-03-05T09:22:30.175Z,8.12
2019-03-05T09:23:30.203Z,8.15
2019-03-05T09:24:30.168Z,8.13
2019-03-05T09:25:30.279Z,8.09
2019-03-05T09:26:30.163Z,8.08
2019-03-05T09:27:30.130Z,8.08
2019-03-05T09:28:30.143Z,8.06
2019-03-05T09:29:30.166Z,8.04
2019-03-05T09:30:30.175Z,8.02
2019-03-05T09:31:30.236Z,8
2019-03-05T09:32:30.195Z,7.97
2019-03-05T09:33:30.166Z,7.95
2019-03-05T09:34:30.197Z,7.95
2019-03-05T09:35:30.148Z,7.92
2019-03-05T09:36:30.168Z,7.95
2019-03-05T09:37:30.167Z,7.93
2019-03-05T09:38:30.130Z,7.94
2019-03-05T09:39:30.314Z,7.88
2019-03-05T09:40:30.159Z,7.87
2019-03-05T09:41:30.154Z,7.88
2019-03-05T09:42:40.477Z,7.83
2019-03-05T09:43:30.154Z,7.84
2019-03-05T09:44:30.140Z,7.81
2019-03-05T09:45:30.153Z,7.75
2019-03-05T09:46:30.125Z,7.65
2019-03-05T09:47:30.167Z,7.58
2019-03-05T09:48:30.144Z,7.55
2019-03-05T09:49:30.147Z,7.54
2019-03-05T09:50:32.695Z,7.47
2019-03-05T09:51:30.143Z,7.43
2019-03-05T09:52:30.126Z,7.33
2019-03-05T09:53:30.137Z,7.31
2019-03-05T09:54:30.138Z,7.26
2019-03-05T09:55:30.144Z,7.26
2019-03-05T09:56:30.124Z,7.25
2019-03-05T09:57:30.128Z,7.2
2019-03-05T09:58:30.135Z,7.22
2019-03-05T09:59:30.123Z,7.2
2019-03-05T10:00:30.309Z,7.13
2019-03-05T10:01:30.197Z,7.06
2019-03-05T10:02:30.109Z,6.97
2019-03-05T10:03:30.116Z,7.01
2019-03-05T10:04:30.106Z,7.02
2019-03-05T10:05:30.157Z,6.95
2019-03-05T10:06:30.117Z,6.91
2019-03-05T10:07:30.127Z,6.9
2019-03-05T10:08:33.332Z,6.94
2019-03-05T10:09:30.105Z,6.91
2019-03-05T10:10:30.096Z,6.9
2019-03-05T10:11:30.106Z,6.9
2019-03-05T10:12:30.539Z,6.92
2019-03-05T10:13:30.110Z,6.89
2019-03-05T10:14:30.092Z,6.94
2019-03-05T10:15:30.084Z,6.9
2019-03-05T10:16:30.089Z,6.89
2019-03-05T10:17:38.598Z,6.89
2019-03-05T10:18:30.119Z,6.89
2019-03-05T10:19:30.090Z,6.93
2019-03-05T10:20:30.081Z,6.96
2019-03-05T10:21:30.074Z,6.99
2019-03-05T10:22:30.620Z,6.97
2019-03-05T10:23:30.293Z,7
2019-03-05T10:24:30.099Z,6.99
2019-03-05T10:25:30.143Z,7.04
2019-03-05T10:26:30.181Z,7.03
2019-03-05T10:27:30.062Z,6.98
2019-03-05T10:28:30.072Z,6.99
2019-03-05T10:29:30.103Z,6.98
2019-03-05T10:30:30.100Z,6.99
2019-03-05T10:31:30.087Z,7.03
2019-03-05T10:32:30.066Z,7.03
2019-03-05T10:33:30.155Z,7.04
2019-03-05T10:34:30.070Z,7.04
2019-03-05T10:35:30.085Z,7.04
2019-03-05T10:36:30.048Z,7.06
2019-03-05T10:37:30.065Z,7.07
2019-03-05T10:38:30.069Z,7.09
2019-03-05T10:39:31.687Z,7.1
2019-03-05T10:40:30.057Z,7.11
2019-03-05T10:41:30.122Z,7.11
2019-03-05T10:42:32.347Z,7.13
2019-03-05T10:43:30.080Z,7.17
2019-03-05T10:44:30.054Z,7.18
2019-03-05T10:45:30.051Z,7.22
2019-03-05T10:46:30.072Z,7.25
2019-03-05T10:48:30.862Z,7.28
2019-03-05T10:49:30.077Z,7.28
2019-03-05T10:50:30.169Z,7.29
2019-03-05T10:51:30.044Z,7.32
2019-03-05T10:52:30.106Z,7.33
2019-03-05T10:53:36.102Z,7.33
2019-03-05T10:54:44.521Z,7.33
2019-03-05T10:55:30.046Z,7.34
2019-03-05T10:56:30.052Z,7.34
2019-03-05T10:57:30.070Z,7.35
2019-03-05T10:58:34.792Z,7.38
2019-03-05T10:59:30.043Z,7.36
2019-03-05T11:00:30.034Z,7.4
2019-03-05T11:01:30.038Z,7.38
2019-03-05T11:02:31.909Z,7.36
2019-03-05T11:03:30.116Z,7.34
2019-03-05T11:04:30.050Z,7.38
2019-03-05T11:05:30.062Z,7.37
2019-03-05T11:06:30.313Z,7.4
2019-03-05T11:07:30.013Z,7.37
2019-03-05T11:08:30.047Z,7.39
2019-03-05T11:09:30.026Z,7.4
2019-03-05T11:10:30.027Z,7.39
2019-03-05T11:11:30.101Z,7.4
2019-03-05T11:12:30.016Z,7.4
2019-03-05T11:13:34.548Z,7.44
2019-03-05T11:14:30.039Z,7.4
2019-03-05T11:16:31.554Z,7.4
2019-03-05T11:17:30.022Z,7.4
2019-03-05T11:18:30.530Z,7.39
2019-03-05T11:19:30.090Z,7.39
2019-03-05T11:20:30.143Z,7.38
2019-03-05T11:21:35.961Z,7.41
2019-03-05T11:22:30.007Z,7.42
2019-03-05T11:23:30.026Z,7.41
2019-03-05T11:24:30.002Z,7.4
2019-03-05T11:25:30.026Z,7.4
2019-03-05T11:26:30.082Z,7.41
2019-03-05T11:27:38.129Z,7.4
2019-03-05T11:28:30.016Z,7.37
2019-03-05T11:29:30.053Z,7.38
2019-03-05T11:31:30.069Z,7.38
2019-03-05T11:33:30.016Z,7.31
2019-03-05T11:34:29.978Z,7.32
2019-03-05T11:35:29.984Z,7.27
2019-03-05T11:36:29.976Z,7.28
2019-03-05T11:37:30.001Z,7.27
2019-03-05T11:38:29.974Z,7.26
2019-03-05T11:39:29.962Z,7.27
2019-03-05T11:40:29.985Z,7.27
2019-03-05T11:41:29.949Z,7.23
2019-03-05T11:42:29.968Z,7.2
2019-03-05T11:43:29.980Z,7.18
2019-03-05T11:44:29.962Z,7.17
2019-03-05T11:45:29.956Z,7.15
2019-03-05T11:46:29.961Z,7.14
2019-03-05T11:47:30.225Z,7.14
2019-03-05T11:48:30.075Z,7.11
2019-03-05T11:49:30.263Z,7.15
2019-03-05T11:50:29.945Z,7.15
2019-03-05T11:51:29.954Z,7.14
2019-03-05T11:52:29.970Z,7.12
2019-03-05T11:53:29.990Z,7.11
2019-03-05T11:54:29.968Z,7.1
2019-03-05T11:55:29.967Z,7.12
2019-03-05T11:56:29.968Z,7.15
2019-03-05T11:57:29.951Z,7.14
2019-03-05T11:58:29.966Z,7.16
2019-03-05T11:59:29.934Z,7.17
2019-03-05T12:00:29.952Z,7.19
2019-03-05T12:01:29.934Z,7.22
2019-03-05T12:02:29.942Z,7.19
2019-03-05T12:03:29.956Z,7.24
2019-03-05T12:04:29.946Z,7.27
2019-03-05T12:05:29.927Z,7.29
2019-03-05T12:06:29.944Z,7.3
2019-03-05T12:07:29.935Z,7.32
2019-03-05T12:08:35.696Z,7.36
2019-03-05T12:09:32.094Z,7.4
2019-03-05T12:10:30.098Z,7.38
2019-03-05T12:11:29.962Z,7.41
2019-03-05T12:12:29.977Z,7.42
2019-03-05T12:13:29.933Z,7.44
2019-03-05T12:14:29.932Z,7.45
2019-03-05T12:15:29.950Z,7.43
2019-03-05T12:16:29.924Z,7.45
2019-03-05T12:17:29.929Z,7.44
2019-03-05T12:18:29.936Z,7.48
2019-03-05T12:19:31.022Z,7.49
2019-03-05T12:20:29.908Z,7.49
2019-03-05T12:21:29.910Z,7.53
2019-03-05T12:22:32.892Z,7.48
2019-03-05T12:23:29.948Z,7.51
2019-03-05T12:24:29.922Z,7.54
2019-03-05T12:25:29.927Z,7.55
2019-03-05T12:26:29.899Z,7.58
2019-03-05T12:27:29.894Z,7.56
2019-03-05T12:28:29.945Z,7.59
2019-03-05T12:29:29.942Z,7.6
2019-03-05T12:30:29.972Z,7.59
2019-03-05T12:31:30.257Z,7.59
2019-03-05T12:32:30.089Z,7.6
2019-03-05T12:33:29.913Z,7.59
2019-03-05T12:34:29.923Z,7.61
2019-03-05T12:35:29.918Z,7.59
2019-03-05T12:36:29.920Z,7.59
2019-03-05T12:37:29.916Z,7.59
2019-03-05T12:38:29.909Z,7.59
2019-03-05T12:39:29.917Z,7.59
2019-03-05T12:40:29.904Z,7.57
2019-03-05T12:41:29.864Z,7.59
2019-03-05T12:42:29.891Z,7.59
2019-03-05T12:43:29.890Z,7.57
2019-03-05T12:44:29.895Z,7.56
2019-03-05T12:45:29.961Z,7.55
2019-03-05T12:46:29.924Z,7.56
2019-03-05T12:47:29.896Z,7.57
2019-03-05T12:48:40.760Z,7.57
2019-03-05T12:49:29.891Z,7.58
2019-03-05T12:50:29.938Z,7.54
2019-03-05T12:51:29.878Z,7.53
2019-03-05T12:52:29.867Z,7.54
2019-03-05T12:53:29.945Z,7.55
2019-03-05T12:54:29.900Z,7.53
2019-03-05T12:55:29.966Z,7.52
2019-03-05T12:56:29.887Z,7.53
2019-03-05T12:57:29.891Z,7.52
2019-03-05T12:58:29.876Z,7.53
2019-03-05T12:59:29.907Z,7.52
2019-03-05T13:00:29.872Z,7.5
2019-03-05T13:01:29.877Z,7.52
2019-03-05T13:02:29.851Z,7.52
2019-03-05T13:03:29.866Z,7.49
2019-03-05T13:04:29.871Z,7.51
2019-03-05T13:05:29.846Z,7.53
2019-03-05T13:06:31.765Z,7.52
2019-03-05T13:07:29.835Z,7.53
2019-03-05T13:08:29.856Z,7.5
2019-03-05T13:09:29.837Z,7.49
2019-03-05T13:10:37.977Z,7.49
2019-03-05T13:11:29.842Z,7.52
2019-03-05T13:12:40.363Z,7.52
2019-03-05T13:13:29.859Z,7.47
2019-03-05T13:14:29.843Z,7.46
2019-03-05T13:15:29.881Z,7.45
2019-03-05T13:16:30.115Z,7.47
2019-03-05T13:17:29.859Z,7.46
2019-03-05T13:18:32.649Z,7.45
2019-03-05T13:19:29.837Z,7.45
2019-03-05T13:20:29.827Z,7.45
2019-03-05T13:21:29.840Z,7.39
2019-03-05T13:22:30.305Z,7.39
2019-03-05T13:23:29.837Z,7.39
2019-03-05T13:24:29.835Z,7.37
2019-03-05T13:25:30.326Z,7.37